sensor_id;sensor_type;location;lat;lon;timestamp;pressure;altitude;pressure_sealevel;temperature;humidity
38852;BME280;24605;50.092;9.182;2022-12-18T00:02:07;99101.28;;;-7.90;100.00
38852;BME280;24605;50.092;9.182;2022-12-18T00:04:33;99108.81;;;-7.83;100.00
38852;BME280;24605;50.092;9.182;2022-12-18T00:07:00;99094.59;;;-7.95;100.00
38852;BME280;24605;50.092;9.182;2022-12-18T00:09:26;99110.56;;;-7.87;100.00
38852;BME280;24605;50.092;9.182;2022-12-18T00:11:52;99117.38;;;-7.89;100.00
38852;BME280;24605;50.092;9.182;2022-12-18T00:14:20;99120.91;;;-7.96;100.00
38852;BME280;24605;50.092;9.182;2022-12-18T00:16:47;99133.69;;;-8.01;100.00
38852;BME280;24605;50.092;9.182;2022-12-18T00:19:14;99129.78;;;-8.25;100.00
38852;BME280;24605;50.092;9.182;2022-12-18T00:21:41;99125.66;;;-8.32;100.00
38852;BME280;24605;50.092;9.182;2022-12-18T00:24:09;99107.94;;;-8.39;100.00
38852;BME280;24605;50.092;9.182;2022-12-18T00:26:36;99126.59;;;-8.40;100.00
38852;BME280;24605;50.092;9.182;2022-12-18T00:29:05;99119.00;;;-8.43;100.00
38852;BME280;24605;50.092;9.182;2022-12-18T00:31:33;99104.84;;;-8.56;100.00
38852;BME280;24605;50.092;9.182;2022-12-18T00:34:00;99125.72;;;-8.37;100.00
38852;BME280;24605;50.092;9.182;2022-12-18T00:36:28;99123.25;;;-8.42;100.00
38852;BME280;24605;50.092;9.182;2022-12-18T00:38:56;99117.41;;;-8.47;100.00
38852;BME280;24605;50.092;9.182;2022-12-18T00:41:23;99129.16;;;-8.41;100.00
38852;BME280;24605;50.092;9.182;2022-12-18T00:44:10;99119.09;;;-8.47;100.00
38852;BME280;24605;50.092;9.182;2022-12-18T00:46:38;99098.00;;;-8.54;100.00
38852;BME280;24605;50.092;9.182;2022-12-18T00:49:05;99120.16;;;-8.64;100.00
38852;BME280;24605;50.092;9.182;2022-12-18T00:51:31;99123.56;;;-8.65;100.00
38852;BME280;24605;50.092;9.182;2022-12-18T00:53:58;99129.50;;;-8.66;100.00
38852;BME280;24605;50.092;9.182;2022-12-18T00:56:24;99130.59;;;-8.86;100.00
38852;BME280;24605;50.092;9.182;2022-12-18T00:58:51;99136.53;;;-8.85;100.00
38852;BME280;24605;50.092;9.182;2022-12-18T01:01:17;99131.50;;;-8.90;100.00
38852;BME280;24605;50.092;9.182;2022-12-18T01:03:46;99134.91;;;-8.92;100.00
38852;BME280;24605;50.092;9.182;2022-12-18T01:06:14;99134.16;;;-9.01;100.00
38852;BME280;24605;50.092;9.182;2022-12-18T01:08:42;99136.59;;;-8.91;100.00
38852;BME280;24605;50.092;9.182;2022-12-18T01:11:09;99123.06;;;-8.93;100.00
38852;BME280;24605;50.092;9.182;2022-12-18T01:13:36;99145.69;;;-8.70;100.00
38852;BME280;24605;50.092;9.182;2022-12-18T01:16:03;99148.22;;;-8.70;100.00
38852;BME280;24605;50.092;9.182;2022-12-18T01:18:30;99145.78;;;-8.81;100.00
38852;BME280;24605;50.092;9.182;2022-12-18T01:20:58;99129.03;;;-8.98;100.00
38852;BME280;24605;50.092;9.182;2022-12-18T01:23:25;99118.84;;;-8.94;100.00
38852;BME280;24605;50.092;9.182;2022-12-18T01:25:51;99122.16;;;-8.88;100.00
38852;BME280;24605;50.092;9.182;2022-12-18T01:28:17;99128.75;;;-8.74;100.00
38852;BME280;24605;50.092;9.182;2022-12-18T01:30:44;99131.38;;;-8.80;100.00
38852;BME280;24605;50.092;9.182;2022-12-18T01:33:10;99148.81;;;-8.51;100.00
38852;BME280;24605;50.092;9.182;2022-12-18T01:35:40;99140.44;;;-8.59;100.00
38852;BME280;24605;50.092;9.182;2022-12-18T01:38:08;99121.81;;;-8.58;100.00
38852;BME280;24605;50.092;9.182;2022-12-18T01:40:35;99146.25;;;-8.50;100.00
38852;BME280;24605;50.092;9.182;2022-12-18T01:43:02;99140.16;;;-8.38;100.00
38852;BME280;24605;50.092;9.182;2022-12-18T01:45:30;99143.63;;;-8.43;100.00
38852;BME280;24605;50.092;9.182;2022-12-18T01:47:59;99152.75;;;-8.30;100.00
38852;BME280;24605;50.092;9.182;2022-12-18T01:50:29;99151.66;;;-8.12;100.00
38852;BME280;24605;50.092;9.182;2022-12-18T01:52:58;99140.00;;;-8.28;100.00
38852;BME280;24605;50.092;9.182;2022-12-18T01:55:29;99133.31;;;-8.34;100.00
38852;BME280;24605;50.092;9.182;2022-12-18T01:57:58;99149.09;;;-8.10;100.00
38852;BME280;24605;50.092;9.182;2022-12-18T02:00:26;99152.38;;;-8.04;100.00
38852;BME280;24605;50.092;9.182;2022-12-18T02:02:53;99146.25;;;-7.90;100.00
38852;BME280;24605;50.092;9.182;2022-12-18T02:05:29;99142.22;;;-8.05;100.00
38852;BME280;24605;50.092;9.182;2022-12-18T02:08:06;99134.13;;;-8.32;100.00
38852;BME280;24605;50.092;9.182;2022-12-18T02:10:42;99132.41;;;-8.30;100.00
38852;BME280;24605;50.092;9.182;2022-12-18T02:13:14;99119.00;;;-8.43;100.00
38852;BME280;24605;50.092;9.182;2022-12-18T02:15:51;99130.66;;;-8.26;100.00
38852;BME280;24605;50.092;9.182;2022-12-18T02:18:25;99133.19;;;-8.26;100.00
38852;BME280;24605;50.092;9.182;2022-12-18T02:20:58;99139.66;;;-8.05;100.00
38852;BME280;24605;50.092;9.182;2022-12-18T02:23:45;99141.03;;;-7.84;100.00
38852;BME280;24605;50.092;9.182;2022-12-18T02:26:29;99138.22;;;-7.64;100.00
38852;BME280;24605;50.092;9.182;2022-12-18T02:29:01;99127.19;;;-7.66;100.00
38852;BME280;24605;50.092;9.182;2022-12-18T02:31:35;99114.59;;;-7.74;100.00
38852;BME280;24605;50.092;9.182;2022-12-18T02:34:04;99111.06;;;-7.65;100.00
38852;BME280;24605;50.092;9.182;2022-12-18T02:36:33;99114.34;;;-7.60;100.00
38852;BME280;24605;50.092;9.182;2022-12-18T02:39:01;99117.66;;;-7.53;100.00
38852;BME280;24605;50.092;9.182;2022-12-18T02:41:29;99125.13;;;-7.44;100.00
38852;BME280;24605;50.092;9.182;2022-12-18T02:43:58;99095.50;;;-7.49;100.00
38852;BME280;24605;50.092;9.182;2022-12-18T02:46:32;99130.81;;;-7.29;100.00
38852;BME280;24605;50.092;9.182;2022-12-18T02:49:05;99139.34;;;-7.32;100.00
38852;BME280;24605;50.092;9.182;2022-12-18T02:51:39;99117.63;;;-7.51;100.00
38852;BME280;24605;50.092;9.182;2022-12-18T02:54:13;99133.47;;;-7.35;100.00
38852;BME280;24605;50.092;9.182;2022-12-18T02:56:49;99129.94;;;-7.28;100.00
38852;BME280;24605;50.092;9.182;2022-12-18T02:59:19;99128.09;;;-7.20;100.00
38852;BME280;24605;50.092;9.182;2022-12-18T03:01:51;99129.19;;;-7.33;100.00
38852;BME280;24605;50.092;9.182;2022-12-18T03:04:25;99136.09;;;-7.40;100.00
38852;BME280;24605;50.092;9.182;2022-12-18T03:06:55;99143.66;;;-7.35;100.00
38852;BME280;24605;50.092;9.182;2022-12-18T03:09:29;99138.72;;;-7.45;100.00
38852;BME280;24605;50.092;9.182;2022-12-18T03:12:08;99137.16;;;-7.52;100.00
38852;BME280;24605;50.092;9.182;2022-12-18T03:14:55;99135.69;;;-7.67;100.00
38852;BME280;24605;50.092;9.182;2022-12-18T03:17:26;99124.81;;;-7.75;100.00
38852;BME280;24605;50.092;9.182;2022-12-18T03:19:56;99128.84;;;-7.63;100.00
38852;BME280;24605;50.092;9.182;2022-12-18T03:22:27;99120.69;;;-7.84;100.00
38852;BME280;24605;50.092;9.182;2022-12-18T03:24:56;99120.03;;;-7.97;100.00
38852;BME280;24605;50.092;9.182;2022-12-18T03:27:25;99131.81;;;-7.90;100.00
38852;BME280;24605;50.092;9.182;2022-12-18T03:29:58;99143.22;;;-7.61;100.00
38852;BME280;24605;50.092;9.182;2022-12-18T03:32:35;99139.75;;;-7.55;100.00
38852;BME280;24605;50.092;9.182;2022-12-18T03:35:05;99132.94;;;-7.53;100.00
38852;BME280;24605;50.092;9.182;2022-12-18T03:37:33;99124.50;;;-7.57;100.00
38852;BME280;24605;50.092;9.182;2022-12-18T03:40:00;99126.53;;;-7.77;100.00
38852;BME280;24605;50.092;9.182;2022-12-18T03:42:31;99128.03;;;-7.64;100.00
38852;BME280;24605;50.092;9.182;2022-12-18T03:45:05;99118.81;;;-7.73;100.00
38852;BME280;24605;50.092;9.182;2022-12-18T03:47:39;99121.25;;;-7.66;100.00
38852;BME280;24605;50.092;9.182;2022-12-18T03:50:11;99120.38;;;-7.64;100.00
38852;BME280;24605;50.092;9.182;2022-12-18T03:52:44;99119.53;;;-7.63;100.00
38852;BME280;24605;50.092;9.182;2022-12-18T03:55:12;99127.25;;;-7.67;100.00
38852;BME280;24605;50.092;9.182;2022-12-18T03:57:41;99131.53;;;-7.73;100.00
38852;BME280;24605;50.092;9.182;2022-12-18T04:00:10;99129.91;;;-7.75;100.00
38852;BME280;24605;50.092;9.182;2022-12-18T04:02:41;99137.72;;;-7.86;100.00
38852;BME280;24605;50.092;9.182;2022-12-18T04:05:10;99135.47;;;-8.08;100.00
38852;BME280;24605;50.092;9.182;2022-12-18T04:07:37;99108.81;;;-8.40;100.00
38852;BME280;24605;50.092;9.182;2022-12-18T04:10:06;99112.53;;;-8.64;100.00
38852;BME280;24605;50.092;9.182;2022-12-18T04:12:33;99120.31;;;-8.75;100.00
38852;BME280;24605;50.092;9.182;2022-12-18T04:15:01;99087.53;;;-8.95;100.00
38852;BME280;24605;50.092;9.182;2022-12-18T04:17:27;99123.78;;;-8.84;100.00
38852;BME280;24605;50.092;9.182;2022-12-18T04:19:54;99123.78;;;-8.84;100.00
38852;BME280;24605;50.092;9.182;2022-12-18T04:22:21;99134.69;;;-8.72;100.00
38852;BME280;24605;50.092;9.182;2022-12-18T04:24:48;99124.03;;;-8.38;100.00
38852;BME280;24605;50.092;9.182;2022-12-18T04:27:14;99109.78;;;-8.47;100.00
38852;BME280;24605;50.092;9.182;2022-12-18T04:29:41;99128.03;;;-8.22;100.00
38852;BME280;24605;50.092;9.182;2022-12-18T04:32:09;99121.59;;;-8.46;100.00
38852;BME280;24605;50.092;9.182;2022-12-18T04:34:35;99126.78;;;-8.52;100.00
38852;BME280;24605;50.092;9.182;2022-12-18T04:37:02;99125.91;;;-8.50;100.00
38852;BME280;24605;50.092;9.182;2022-12-18T04:39:29;99121.78;;;-8.55;100.00
38852;BME280;24605;50.092;9.182;2022-12-18T04:41:55;99122.69;;;-8.62;100.00
38852;BME280;24605;50.092;9.182;2022-12-18T04:44:22;99110.75;;;-8.56;100.00
38852;BME280;24605;50.092;9.182;2022-12-18T04:46:48;99116.22;;;-8.24;100.00
38852;BME280;24605;50.092;9.182;2022-12-18T04:49:16;99116.25;;;-8.27;100.00
38852;BME280;24605;50.092;9.182;2022-12-18T04:51:43;99122.00;;;-8.13;100.00
38852;BME280;24605;50.092;9.182;2022-12-18T04:54:09;99132.06;;;-8.07;100.00
38852;BME280;24605;50.092;9.182;2022-12-18T04:56:36;99135.44;;;-8.06;100.00
38852;BME280;24605;50.092;9.182;2022-12-18T04:59:02;99120.47;;;-8.26;100.00
38852;BME280;24605;50.092;9.182;2022-12-18T05:01:29;99130.84;;;-8.39;100.00
38852;BME280;24605;50.092;9.182;2022-12-18T05:03:55;99133.28;;;-8.32;100.00
38852;BME280;24605;50.092;9.182;2022-12-18T05:06:23;99132.38;;;-8.27;100.00
38852;BME280;24605;50.092;9.182;2022-12-18T05:08:49;99124.78;;;-8.30;100.00
38852;BME280;24605;50.092;9.182;2022-12-18T05:11:16;99131.59;;;-8.34;100.00
38852;BME280;24605;50.092;9.182;2022-12-18T05:13:43;99124.97;;;-8.44;100.00
38852;BME280;24605;50.092;9.182;2022-12-18T05:16:10;99125.63;;;-8.29;100.00
38852;BME280;24605;50.092;9.182;2022-12-18T05:18:37;99111.31;;;-8.38;100.00
38852;BME280;24605;50.092;9.182;2022-12-18T05:21:04;99105.47;;;-8.43;100.00
38852;BME280;24605;50.092;9.182;2022-12-18T05:23:32;99132.31;;;-8.22;100.00
38852;BME280;24605;50.092;9.182;2022-12-18T05:26:02;99122.84;;;-8.14;100.00
38852;BME280;24605;50.092;9.182;2022-12-18T05:28:30;99128.09;;;-8.26;100.00
38852;BME280;24605;50.092;9.182;2022-12-18T05:31:00;99095.06;;;-8.28;100.00
38852;BME280;24605;50.092;9.182;2022-12-18T05:33:29;99120.94;;;-7.98;100.00
38852;BME280;24605;50.092;9.182;2022-12-18T05:35:57;99062.75;;;-8.20;100.00
38852;BME280;24605;50.092;9.182;2022-12-18T05:38:26;99123.94;;;-7.74;100.00
38852;BME280;24605;50.092;9.182;2022-12-18T05:40:54;99125.47;;;-7.65;100.00
38852;BME280;24605;50.092;9.182;2022-12-18T05:43:22;99105.34;;;-7.78;100.00
38852;BME280;24605;50.092;9.182;2022-12-18T05:45:49;99104.25;;;-7.63;100.00
38852;BME280;24605;50.092;9.182;2022-12-18T05:48:16;99117.69;;;-7.56;100.00
38852;BME280;24605;50.092;9.182;2022-12-18T05:50:45;99120.19;;;-7.53;100.00
38852;BME280;24605;50.092;9.182;2022-12-18T05:53:13;99122.47;;;-7.37;100.00
38852;BME280;24605;50.092;9.182;2022-12-18T05:55:40;99117.16;;;-7.27;100.00
38852;BME280;24605;50.092;9.182;2022-12-18T05:58:10;99124.72;;;-7.22;100.00
38852;BME280;24605;50.092;9.182;2022-12-18T06:00:38;99125.59;;;-7.21;100.00
38852;BME280;24605;50.092;9.182;2022-12-18T06:03:05;99139.19;;;-7.22;100.00
38852;BME280;24605;50.092;9.182;2022-12-18T06:05:34;99132.31;;;-7.19;100.00
38852;BME280;24605;50.092;9.182;2022-12-18T06:08:01;99134.75;;;-7.13;100.00
38852;BME280;24605;50.092;9.182;2022-12-18T06:10:27;99116.13;;;-7.16;100.00
38852;BME280;24605;50.092;9.182;2022-12-18T06:12:56;99129.56;;;-7.06;100.00
38852;BME280;24605;50.092;9.182;2022-12-18T06:15:23;99122.91;;;-7.15;100.00
38852;BME280;24605;50.092;9.182;2022-12-18T06:17:50;99100.28;;;-7.31;100.00
38852;BME280;24605;50.092;9.182;2022-12-18T06:20:17;99140.75;;;-7.15;100.00
38852;BME280;24605;50.092;9.182;2022-12-18T06:22:44;99141.44;;;-7.07;100.00
38852;BME280;24605;50.092;9.182;2022-12-18T06:25:10;99130.59;;;-7.17;100.00
38852;BME280;24605;50.092;9.182;2022-12-18T06:27:37;99137.22;;;-7.08;100.00
38852;BME280;24605;50.092;9.182;2022-12-18T06:30:04;99147.63;;;-7.19;100.00
38852;BME280;24605;50.092;9.182;2022-12-18T06:32:32;99146.72;;;-7.15;100.00
38852;BME280;24605;50.092;9.182;2022-12-18T06:34:59;99152.53;;;-7.10;100.00
38852;BME280;24605;50.092;9.182;2022-12-18T06:37:25;99145.84;;;-7.15;100.00
38852;BME280;24605;50.092;9.182;2022-12-18T06:39:52;99144.06;;;-7.10;100.00
38852;BME280;24605;50.092;9.182;2022-12-18T06:42:18;99149.94;;;-7.06;100.00
38852;BME280;24605;50.092;9.182;2022-12-18T06:44:48;99148.25;;;-7.07;100.00
38852;BME280;24605;50.092;9.182;2022-12-18T06:47:14;99144.91;;;-7.10;100.00
38852;BME280;24605;50.092;9.182;2022-12-18T06:49:42;99129.78;;;-7.19;100.00
38852;BME280;24605;50.092;9.182;2022-12-18T06:52:09;99149.25;;;-7.15;100.00
38852;BME280;24605;50.092;9.182;2022-12-18T06:54:35;99150.94;;;-7.15;100.00
38852;BME280;24605;50.092;9.182;2022-12-18T06:57:02;99142.47;;;-7.17;100.00
38852;BME280;24605;50.092;9.182;2022-12-18T06:59:29;99158.63;;;-7.17;100.00
38852;BME280;24605;50.092;9.182;2022-12-18T07:01:55;99168.91;;;-7.21;100.00
38852;BME280;24605;50.092;9.182;2022-12-18T07:04:24;99159.44;;;-7.16;100.00
38852;BME280;24605;50.092;9.182;2022-12-18T07:06:54;99162.84;;;-7.16;100.00
38852;BME280;24605;50.092;9.182;2022-12-18T07:09:21;99169.59;;;-7.13;100.00
38852;BME280;24605;50.092;9.182;2022-12-18T07:11:47;99141.81;;;-7.27;100.00
38852;BME280;24605;50.092;9.182;2022-12-18T07:14:14;99171.38;;;-7.17;100.00
38852;BME280;24605;50.092;9.182;2022-12-18T07:16:41;99170.66;;;-7.25;100.00
38852;BME280;24605;50.092;9.182;2022-12-18T07:19:07;99172.41;;;-7.29;100.00
38852;BME280;24605;50.092;9.182;2022-12-18T07:21:34;99159.06;;;-7.42;100.00
38852;BME280;24605;50.092;9.182;2022-12-18T07:24:02;99190.34;;;-7.33;100.00
38852;BME280;24605;50.092;9.182;2022-12-18T07:26:29;99181.97;;;-7.42;100.00
38852;BME280;24605;50.092;9.182;2022-12-18T07:28:56;99200.81;;;-7.53;100.00
38852;BME280;24605;50.092;9.182;2022-12-18T07:31:23;99192.97;;;-7.40;100.00
38852;BME280;24605;50.092;9.182;2022-12-18T07:33:51;99199.03;;;-7.45;100.00
38852;BME280;24605;50.092;9.182;2022-12-18T07:36:18;99202.59;;;-7.59;100.00
38852;BME280;24605;50.092;9.182;2022-12-18T07:38:46;99199.03;;;-7.45;100.00
38852;BME280;24605;50.092;9.182;2022-12-18T07:41:14;99204.13;;;-7.47;100.00
38852;BME280;24605;50.092;9.182;2022-12-18T07:43:41;99204.13;;;-7.47;100.00
38852;BME280;24605;50.092;9.182;2022-12-18T07:46:09;99204.97;;;-7.46;100.00
38852;BME280;24605;50.092;9.182;2022-12-18T07:48:35;99202.44;;;-7.46;100.00
38852;BME280;24605;50.092;9.182;2022-12-18T07:51:04;99174.53;;;-7.54;100.00
38852;BME280;24605;50.092;9.182;2022-12-18T07:53:35;99183.09;;;-7.60;100.00
38852;BME280;24605;50.092;9.182;2022-12-18T07:56:04;99196.41;;;-7.41;100.00
38852;BME280;24605;50.092;9.182;2022-12-18T07:58:33;99192.22;;;-7.45;100.00
38852;BME280;24605;50.092;9.182;2022-12-18T08:01:03;99183.13;;;-7.61;100.00
38852;BME280;24605;50.092;9.182;2022-12-18T08:03:29;99192.09;;;-7.38;100.00
38852;BME280;24605;50.092;9.182;2022-12-18T08:05:58;99198.03;;;-7.38;100.00
38852;BME280;24605;50.092;9.182;2022-12-18T08:08:25;99194.69;;;-7.40;100.00
38852;BME280;24605;50.092;9.182;2022-12-18T08:10:51;99193.00;;;-7.41;100.00
38852;BME280;24605;50.092;9.182;2022-12-18T08:13:18;99177.91;;;-7.52;100.00
38852;BME280;24605;50.092;9.182;2022-12-18T08:15:46;99194.63;;;-7.37;100.00
38852;BME280;24605;50.092;9.182;2022-12-18T08:18:12;99174.38;;;-7.45;100.00
38852;BME280;24605;50.092;9.182;2022-12-18T08:20:39;99191.94;;;-7.28;100.00
38852;BME280;24605;50.092;9.182;2022-12-18T08:23:05;99202.06;;;-7.23;100.00
38852;BME280;24605;50.092;9.182;2022-12-18T08:25:31;99191.81;;;-7.21;100.00
38852;BME280;24605;50.092;9.182;2022-12-18T08:27:58;99192.53;;;-7.13;100.00
38852;BME280;24605;50.092;9.182;2022-12-18T08:30:24;99188.25;;;-7.11;100.00
38852;BME280;24605;50.092;9.182;2022-12-18T08:32:52;99189.78;;;-7.02;100.00
38852;BME280;24605;50.092;9.182;2022-12-18T08:35:19;99173.00;;;-7.14;100.00
38852;BME280;24605;50.092;9.182;2022-12-18T08:37:45;99180.63;;;-7.11;100.00
38852;BME280;24605;50.092;9.182;2022-12-18T08:40:12;99183.00;;;-7.02;100.00
38852;BME280;24605;50.092;9.182;2022-12-18T08:42:39;99157.69;;;-7.11;100.00
38852;BME280;24605;50.092;9.182;2022-12-18T08:45:23;99173.59;;;-6.98;100.00
38852;BME280;24605;50.092;9.182;2022-12-18T08:47:49;99169.47;;;-7.05;100.00
38852;BME280;24605;50.092;9.182;2022-12-18T08:50:18;99175.31;;;-7.00;100.00
38852;BME280;24605;50.092;9.182;2022-12-18T08:52:45;99179.59;;;-7.01;100.00
38852;BME280;24605;50.092;9.182;2022-12-18T08:55:11;99182.09;;;-6.99;100.00
38852;BME280;24605;50.092;9.182;2022-12-18T08:57:38;99184.69;;;-7.02;100.00
38852;BME280;24605;50.092;9.182;2022-12-18T09:00:05;99184.56;;;-6.95;100.00
38852;BME280;24605;50.092;9.182;2022-12-18T09:02:32;99178.47;;;-6.87;100.00
38852;BME280;24605;50.092;9.182;2022-12-18T09:04:59;99165.91;;;-6.97;100.00
38852;BME280;24605;50.092;9.182;2022-12-18T09:07:27;99169.22;;;-6.93;100.00
38852;BME280;24605;50.092;9.182;2022-12-18T09:09:53;99160.72;;;-6.92;100.00
38852;BME280;24605;50.092;9.182;2022-12-18T09:12:20;99158.91;;;-6.85;100.00
38852;BME280;24605;50.092;9.182;2022-12-18T09:14:47;99163.22;;;-6.90;100.00
38852;BME280;24605;50.092;9.182;2022-12-18T09:17:13;99165.59;;;-6.80;100.00
38852;BME280;24605;50.092;9.182;2022-12-18T09:19:40;99146.06;;;-6.81;100.00
38852;BME280;24605;50.092;9.182;2022-12-18T09:22:06;99175.41;;;-6.59;100.00
38852;BME280;24605;50.092;9.182;2022-12-18T09:24:34;99171.97;;;-6.58;100.00
38852;BME280;24605;50.092;9.182;2022-12-18T09:27:00;99162.56;;;-6.55;100.00
38852;BME280;24605;50.092;9.182;2022-12-18T09:29:27;99176.06;;;-6.51;100.00
38852;BME280;24605;50.092;9.182;2022-12-18T09:31:53;99174.34;;;-6.51;100.00
38852;BME280;24605;50.092;9.182;2022-12-18T09:34:20;99169.69;;;-6.72;100.00
38852;BME280;24605;50.092;9.182;2022-12-18T09:36:47;99179.84;;;-6.71;100.00
38852;BME280;24605;50.092;9.182;2022-12-18T09:39:13;99195.94;;;-6.67;100.00
38852;BME280;24605;50.092;9.182;2022-12-18T09:41:48;99202.03;;;-6.74;100.00
38852;BME280;24605;50.092;9.182;2022-12-18T09:44:22;99203.66;;;-6.70;100.00
38852;BME280;24605;50.092;9.182;2022-12-18T09:46:54;99202.81;;;-6.71;100.00
38852;BME280;24605;50.092;9.182;2022-12-18T09:49:25;99204.44;;;-6.67;100.00
38852;BME280;24605;50.092;9.182;2022-12-18T09:51:54;99173.34;;;-6.86;100.00
38852;BME280;24605;50.092;9.182;2022-12-18T09:54:26;99207.16;;;-6.78;100.00
38852;BME280;24605;50.092;9.182;2022-12-18T09:56:57;99210.63;;;-6.80;100.00
38852;BME280;24605;50.092;9.182;2022-12-18T09:59:29;99175.91;;;-6.87;100.00
38852;BME280;24605;50.092;9.182;2022-12-18T10:01:57;99214.06;;;-6.83;100.00
38852;BME280;24605;50.092;9.182;2022-12-18T10:04:24;99199.59;;;-6.82;100.00
38852;BME280;24605;50.092;9.182;2022-12-18T10:06:56;99209.63;;;-6.73;100.00
38852;BME280;24605;50.092;9.182;2022-12-18T10:09:28;99195.03;;;-6.65;100.00
38852;BME280;24605;50.092;9.182;2022-12-18T10:12:08;99202.72;;;-6.66;100.00
38852;BME280;24605;50.092;9.182;2022-12-18T10:14:42;99206.81;;;-6.59;100.00
38852;BME280;24605;50.092;9.182;2022-12-18T10:17:18;99188.44;;;-6.75;100.00
38852;BME280;24605;50.092;9.182;2022-12-18T10:19:50;99193.88;;;-6.50;100.00
38852;BME280;24605;50.092;9.182;2022-12-18T10:22:25;99204.78;;;-6.41;100.00
38852;BME280;24605;50.092;9.182;2022-12-18T10:25:01;99188.19;;;-6.61;100.00
38852;BME280;24605;50.092;9.182;2022-12-18T10:27:31;99190.81;;;-6.66;100.00
38852;BME280;24605;50.092;9.182;2022-12-18T10:29:58;99220.97;;;-6.88;100.00
38852;BME280;24605;50.092;9.182;2022-12-18T10:32:29;99213.44;;;-6.49;100.00
38852;BME280;24605;50.092;9.182;2022-12-18T10:34:57;99203.94;;;-6.42;100.00
38852;BME280;24605;50.092;9.182;2022-12-18T10:37:26;99201.34;;;-6.40;100.00
38852;BME280;24605;50.092;9.182;2022-12-18T10:40:08;99198.06;;;-6.46;100.00
38852;BME280;24605;50.092;9.182;2022-12-18T10:42:37;99189.78;;;-6.57;100.00
38852;BME280;24605;50.092;9.182;2022-12-18T10:45:12;99190.41;;;-6.46;100.00
38852;BME280;24605;50.092;9.182;2022-12-18T10:47:42;99171.38;;;-6.29;100.00
38852;BME280;24605;50.092;9.182;2022-12-18T10:50:19;99182.00;;;-6.08;100.00
38852;BME280;24605;50.092;9.182;2022-12-18T10:52:54;99169.34;;;-6.15;100.00
38852;BME280;24605;50.092;9.182;2022-12-18T10:55:20;99167.34;;;-6.00;100.00
38852;BME280;24605;50.092;9.182;2022-12-18T10:57:48;99172.06;;;-5.85;100.00
38852;BME280;24605;50.092;9.182;2022-12-18T11:00:23;99173.09;;;-5.56;100.00
38852;BME280;24605;50.092;9.182;2022-12-18T11:02:51;99173.13;;;-5.57;100.00
38852;BME280;24605;50.092;9.182;2022-12-18T11:05:27;99154.09;;;-5.82;100.00
38852;BME280;24605;50.092;9.182;2022-12-18T11:07:54;99168.44;;;-5.74;100.00
38852;BME280;24605;50.092;9.182;2022-12-18T11:10:22;99159.25;;;-5.47;100.00
38852;BME280;24605;50.092;9.182;2022-12-18T11:12:52;99169.09;;;-5.66;100.00
38852;BME280;24605;50.092;9.182;2022-12-18T11:15:21;99173.75;;;-5.47;100.00
38852;BME280;24605;50.092;9.182;2022-12-18T11:17:50;99162.22;;;-5.29;100.00
38852;BME280;24605;50.092;9.182;2022-12-18T11:20:27;99165.13;;;-5.10;100.00
38852;BME280;24605;50.092;9.182;2022-12-18T11:22:58;99172.75;;;-5.07;100.00
38852;BME280;24605;50.092;9.182;2022-12-18T11:25:29;99176.00;;;-5.02;100.00
38852;BME280;24605;50.092;9.182;2022-12-18T11:27:59;99170.88;;;-5.02;100.00
38852;BME280;24605;50.092;9.182;2022-12-18T11:30:27;99152.75;;;-5.26;100.00
38852;BME280;24605;50.092;9.182;2022-12-18T11:32:58;99163.47;;;-5.11;100.00
38852;BME280;24605;50.092;9.182;2022-12-18T11:35:40;99181.97;;;-5.36;100.00
38852;BME280;24605;50.092;9.182;2022-12-18T11:38:14;99161.63;;;-5.39;100.00
38852;BME280;24605;50.092;9.182;2022-12-18T11:40:47;99156.66;;;-5.45;100.00
38852;BME280;24605;50.092;9.182;2022-12-18T11:43:20;99149.09;;;-5.48;100.00
38852;BME280;24605;50.092;9.182;2022-12-18T11:45:51;99140.88;;;-5.61;100.00
38852;BME280;24605;50.092;9.182;2022-12-18T11:48:23;99118.06;;;-5.69;100.00
38852;BME280;24605;50.092;9.182;2022-12-18T11:50:53;99105.47;;;-5.75;100.00
38852;BME280;24605;50.092;9.182;2022-12-18T11:53:21;99135.28;;;-5.41;100.00
38852;BME280;24605;50.092;9.182;2022-12-18T11:55:54;99132.81;;;-5.13;100.00
38852;BME280;24605;50.092;9.182;2022-12-18T11:58:27;99126.16;;;-5.19;100.00
38852;BME280;24605;50.092;9.182;2022-12-18T12:01:04;99107.94;;;-5.06;100.00
38852;BME280;24605;50.092;9.182;2022-12-18T12:03:49;99125.13;;;-5.11;100.00
38852;BME280;24605;50.092;9.182;2022-12-18T12:06:29;99122.91;;;-5.24;100.00
38852;BME280;24605;50.092;9.182;2022-12-18T12:09:07;99106.28;;;-5.40;100.00
38852;BME280;24605;50.092;9.182;2022-12-18T12:11:47;99133.94;;;-5.23;100.00
38852;BME280;24605;50.092;9.182;2022-12-18T12:14:36;99148.34;;;-5.19;100.00
38852;BME280;24605;50.092;9.182;2022-12-18T12:17:11;99158.50;;;-5.17;100.00
38852;BME280;24605;50.092;9.182;2022-12-18T12:19:45;99153.81;;;-5.33;100.00
38852;BME280;24605;50.092;9.182;2022-12-18T12:22:20;99148.88;;;-5.41;100.00
38852;BME280;24605;50.092;9.182;2022-12-18T12:25:02;99120.66;;;-5.36;100.00
38852;BME280;24605;50.092;9.182;2022-12-18T12:27:39;99149.03;;;-5.14;100.00
38852;BME280;24605;50.092;9.182;2022-12-18T12:30:18;99139.19;;;-5.28;100.00
38852;BME280;24605;50.092;9.182;2022-12-18T12:32:51;99155.13;;;-5.18;100.00
38852;BME280;24605;50.092;9.182;2022-12-18T12:35:25;99156.56;;;-5.08;100.00
38852;BME280;24605;50.092;9.182;2022-12-18T12:38:03;99154.47;;;-4.93;100.00
38852;BME280;24605;50.092;9.182;2022-12-18T12:40:35;99152.13;;;-4.69;100.00
38852;BME280;24605;50.092;9.182;2022-12-18T12:43:07;99125.09;;;-5.10;100.00
38852;BME280;24605;50.092;9.182;2022-12-18T12:45:44;99147.94;;;-4.72;100.00
38852;BME280;24605;50.092;9.182;2022-12-18T12:48:17;99145.69;;;-4.53;100.00
38852;BME280;24605;50.092;9.182;2022-12-18T12:50:45;99126.38;;;-4.63;100.00
38852;BME280;24605;50.092;9.182;2022-12-18T12:53:20;99121.56;;;-4.74;100.00
38852;BME280;24605;50.092;9.182;2022-12-18T12:55:48;99137.81;;;-4.77;100.00
38852;BME280;24605;50.092;9.182;2022-12-18T12:58:19;99145.06;;;-4.61;100.00
38852;BME280;24605;50.092;9.182;2022-12-18T13:00:56;99131.13;;;-4.81;100.00
38852;BME280;24605;50.092;9.182;2022-12-18T13:03:35;99135.19;;;-4.74;100.00